Latest Weather Observations for Hobart

IDT60901

Issued at 1:25 pm EST Thursday 31 July 2014 (issued every 10 minutes, with the page automatically refreshed every 10 minutes)

About weather observations | Map of Hobart area stations | Latest observations for Hobart area | Other Formats
Station Details ID: 094029 Name: HOBART (ELLERSLIE ROAD) Lat: -42.89 Lon: 147.33 Height: 50.5 m
Data from the previous 72 hours. | See also: Recent months at Hobart
Date/Time
EST
Tmp

°C
App
Tmp
°C
Dew
Point
°C
Rel
Hum
%
Delta-T

°C
Wind Press
QNH
hPa
Press
MSL
hPa
Rain
since
9 am
mm
Dir
 
Spd
km/h
Gust
km/h
Spd
kts
Gust
kts
31/01:00pm 6.7 4.8 5.1 89 0.7 E 4 9 2 5 982.3 982.4 13.6
31/12:30pm 6.6 3.9 5.7 94 0.4 SSW 9 13 5 7 982.7 - 11.2
31/12:00pm 6.6 4.3 5.7 94 0.4 SSE 7 11 4 6 983.3 983.4 9.2
31/11:30am 6.8 5.1 5.9 94 0.4 SSE 4 7 2 4 984.2 - 6.6
31/11:00am 6.9 4.6 5.8 93 0.5 NE 7 9 4 5 984.3 984.4 5.6
31/10:30am 6.8 3.9 4.8 87 0.9 NW 9 15 5 8 985.8 - 3.8
31/10:00am 7.0 3.5 5.5 90 0.7 N 13 19 7 10 986.2 986.3 2.2
31/09:30am 7.1 3.8 6.2 94 0.4 NW 13 19 7 10 986.6 - 0.8
31/09:00am 7.3 4.4 6.4 94 0.4 N 11 15 6 8 986.5 986.6 23.8
31/08:30am 7.3 3.2 6.0 91 0.6 NNW 17 24 9 13 988.4 - 22.8
31/08:00am 7.3 2.5 5.5 88 0.8 NNW 20 24 11 13 988.7 988.8 22.4
31/07:30am 7.7 2.7 4.6 81 1.4 N 20 28 11 15 988.4 - 22.2
31/07:00am 7.6 2.7 5.2 85 1.1 NNW 20 30 11 16 989.2 989.3 22.2
31/06:30am 7.5 3.7 6.0 90 0.7 N 15 22 8 12 989.0 - 22.0
31/06:00am 7.1 3.7 6.0 93 0.5 W 13 20 7 11 989.8 989.9 21.6
31/05:30am 7.3 4.9 5.1 86 1.0 S 7 13 4 7 989.4 - 21.4
31/05:00am 7.5 2.7 4.8 83 1.2 WSW 19 24 10 13 990.1 990.1 21.0
31/04:30am 8.5 0.4 5.2 80 1.5 SW 37 54 20 29 988.6 - 19.2
31/04:00am 9.7 7.9 8.1 90 0.8 W 7 11 4 6 988.4 988.5 16.8
31/03:30am 10.6 6.5 6.2 74 2.1 NW 17 24 9 13 988.2 - 14.2
31/03:00am 11.6 6.1 5.7 67 2.8 WNW 24 33 13 18 988.5 988.6 14.2
31/02:30am 11.5 5.2 7.6 77 1.9 WNW 30 44 16 24 989.7 - 13.6
31/02:00am 12.5 8.2 7.0 69 2.7 WNW 19 26 10 14 988.3 988.4 11.2
31/01:30am 12.5 5.4 6.5 67 2.9 NW 33 54 18 29 987.7 - 11.0
31/01:00am 13.5 4.9 4.8 55 4.1 WNW 39 67 21 36 987.6 987.7 9.6
31/12:30am 12.9 5.6 5.3 60 3.5 NW 33 57 18 31 987.5 - 9.6
31/12:00am 13.0 5.8 4.9 58 3.8 NW 32 50 17 27 988.3 988.4 9.6
 
Date/Time
EST
Tmp

°C
App
Tmp
°C
Dew
Point
°C
Rel
Hum
%
Delta-T

°C
Wind Press
QNH
hPa
Press
MSL
hPa
Rain
since
9 am
mm
Dir
 
Spd
km/h
Gust
km/h
Spd
kts
Gust
kts
30/11:30pm 13.1 5.7 4.8 57 3.8 NW 33 50 18 27 988.9 - 9.6
30/11:00pm 13.7 3.7 4.2 52 4.4 NW 46 82 25 44 988.7 988.8 9.6
30/10:30pm 13.4 3.7 4.1 53 4.2 WNW 44 74 24 40 989.3 - 9.6
30/10:00pm 13.8 2.1 3.3 49 4.8 NW 54 87 29 47 989.2 989.3 9.6
30/09:30pm 13.1 4.9 4.8 57 3.8 NW 37 57 20 31 989.5 - 9.4
30/09:00pm 12.7 3.4 5.8 63 3.3 NW 44 59 24 32 989.7 989.8 9.4
30/08:30pm 11.2 6.0 7.3 77 1.9 NW 24 43 13 23 990.8 - 8.6
30/08:00pm 12.0 7.0 6.6 69 2.6 WNW 22 41 12 22 991.3 991.3 6.8
30/07:30pm 11.8 6.3 5.9 67 2.8 WNW 24 41 13 22 991.7 - 6.8
30/07:00pm 11.8 4.7 5.6 66 2.9 WNW 32 48 17 26 992.1 992.1 6.8
30/06:30pm 11.9 5.8 6.5 69 2.6 WNW 28 39 15 21 992.3 - 6.8
30/06:00pm 11.8 5.6 7.7 76 2.0 WNW 30 48 16 26 993.0 993.1 6.8
30/05:30pm 11.3 7.2 8.5 83 1.4 WNW 20 28 11 15 992.9 - 6.2
30/05:00pm 11.8 6.7 7.7 76 2.0 WNW 24 37 13 20 992.8 992.9 5.6
30/04:30pm 11.5 6.1 8.1 79 1.7 WNW 26 41 14 22 992.5 - 5.6
30/04:00pm 11.7 5.4 7.6 76 2.0 WNW 30 46 16 25 992.9 993.0 4.8
30/03:30pm 11.2 5.3 7.7 79 1.7 WNW 28 41 15 22 992.4 - 4.8
30/03:00pm 11.1 4.2 7.4 78 1.8 WNW 33 48 18 26 992.6 992.7 4.4
30/02:30pm 10.9 4.2 7.4 79 1.7 NW 32 50 17 27 992.9 - 4.2
30/02:00pm 10.7 4.4 7.6 81 1.5 NW 30 43 16 23 993.5 993.6 3.8
30/01:30pm 10.8 4.5 7.3 79 1.7 NW 30 54 16 29 994.1 - 2.8
30/01:00pm 11.4 4.2 7.5 77 1.9 NW 35 54 19 29 994.2 994.3 1.8
30/12:30pm 12.6 3.6 6.4 66 3.0 NW 43 74 23 40 993.8 - 1.0
30/12:00pm 12.4 3.6 5.6 63 3.2 NW 41 65 22 35 993.7 993.8 1.0
30/11:30am 11.7 1.7 6.2 69 2.6 NW 48 69 26 37 994.1 - 0.8
30/11:00am 11.7 2.0 6.0 68 2.7 NW 46 63 25 34 994.9 995.0 0.8
30/10:30am 10.9 3.5 6.7 75 2.0 WNW 35 67 19 36 994.9 - 0.8
30/10:00am 10.3 1.1 6.3 76 1.9 NW 44 67 24 36 995.2 995.3 0.6
30/09:30am 11.2 3.0 4.6 64 3.0 WNW 37 61 20 33 995.2 - 0.0
30/09:00am 10.5 1.2 3.2 60 3.2 NW 41 61 22 33 995.0 995.1 15.4
30/08:30am 9.5 -0.3 3.3 65 2.7 NW 44 63 24 34 995.2 - 15.4
30/08:00am 9.4 0.6 1.2 56 3.4 WNW 37 57 20 31 995.2 995.3 15.4
30/07:30am 9.4 0.1 0.3 53 3.7 NW 39 63 21 34 995.3 - 15.4
30/07:00am 9.3 1.5 -0.8 49 4.0 NW 30 46 16 25 995.0 995.1 15.4
30/06:30am 9.0 1.0 0.1 53 3.6 NW 32 46 17 25 995.5 - 15.4
30/06:00am 8.9 1.4 0.9 57 3.3 NW 30 43 16 23 996.2 996.3 15.4
30/05:30am 9.3 2.7 -0.1 52 3.7 NW 24 37 13 20 996.2 - 15.4
30/05:00am 9.5 1.8 -0.2 51 3.9 WNW 30 48 16 26 996.3 996.4 15.4
30/04:30am 10.0 2.1 -1.4 45 4.4 WNW 30 48 16 26 996.2 - 15.4
30/04:00am 9.8 3.4 -1.4 45 4.4 WNW 22 30 12 16 995.7 995.8 15.4
30/03:30am 8.7 2.8 1.8 62 2.9 NW 22 37 12 20 995.0 - 15.4
30/03:00am 8.7 1.8 2.6 65 2.6 WNW 28 52 15 28 994.6 994.7 15.4
30/02:30am 8.5 1.6 2.4 65 2.6 WNW 28 57 15 31 993.9 - 15.2
30/02:00am 9.1 0.4 2.0 61 3.0 WNW 37 69 20 37 992.9 993.0 14.8
30/01:30am 9.8 0.6 -1.0 47 4.2 WNW 37 61 20 33 992.3 - 14.8
30/01:00am 8.7 -0.8 1.5 60 3.0 W 41 69 22 37 992.1 992.1 14.6
30/12:30am 8.3 1.0 2.7 68 2.4 NW 30 43 16 23 991.4 - 13.6
30/12:00am 9.0 2.4 2.2 62 2.9 W 26 43 14 23 991.0 991.0 13.0
 
Date/Time
EST
Tmp

°C
App
Tmp
°C
Dew
Point
°C
Rel
Hum
%
Delta-T

°C
Wind Press
QNH
hPa
Press
MSL
hPa
Rain
since
9 am
mm
Dir
 
Spd
km/h
Gust
km/h
Spd
kts
Gust
kts
29/11:30pm 8.8 2.3 2.5 64 2.7 NW 26 41 14 22 989.4 - 12.6
29/11:00pm 10.7 -1.5 0.6 49 4.2 WNW 54 83 29 45 989.2 989.3 12.2
29/10:30pm 11.3 4.3 -0.4 44 4.7 NW 26 48 14 26 989.0 - 12.0
29/10:00pm 11.5 4.4 -1.1 41 5.1 WNW 26 43 14 23 988.9 989.0 12.0
29/09:30pm 10.8 2.7 0.8 50 4.1 WNW 33 65 18 35 988.4 - 12.0
29/09:00pm 9.8 2.7 3.5 65 2.8 NW 30 44 16 24 987.7 987.8 11.8
29/08:30pm 11.0 2.9 1.1 50 4.1 WNW 33 57 18 31 987.8 - 11.4
29/08:00pm 11.9 4.7 0.8 46 4.7 NW 28 48 15 26 986.3 986.4 11.0
29/07:30pm 11.3 5.5 2.4 54 3.8 NNW 22 50 12 27 986.6 - 11.0
29/07:00pm 10.8 6.1 3.1 59 3.4 WNW 17 26 9 14 986.0 986.1 11.0
29/06:30pm 11.7 2.6 2.1 51 4.1 WNW 39 61 21 33 986.1 - 11.0
29/06:00pm 11.2 3.4 4.9 65 2.9 NW 35 56 19 30 985.9 986.0 11.0
29/05:30pm 10.7 6.0 7.9 83 1.4 NNW 22 46 12 25 984.2 - 9.6
29/05:00pm 10.4 6.2 8.2 86 1.1 NW 20 30 11 16 985.1 985.2 9.4
29/04:30pm 9.9 5.7 8.1 88 0.9 NNW 20 33 11 18 984.4 - 6.4
29/04:00pm 10.2 5.9 7.7 84 1.2 NNW 20 33 11 18 985.1 985.2 5.8
29/03:30pm 10.2 5.9 8.0 86 1.1 NW 20 33 11 18 985.4 - 5.4
29/03:00pm 10.4 3.6 6.9 79 1.7 NW 32 43 17 23 986.0 986.1 5.0
29/02:30pm 10.8 2.8 5.7 71 2.4 NW 37 57 20 31 986.7 - 4.0
29/02:00pm 11.4 2.0 4.2 61 3.3 NW 43 63 23 34 986.7 986.8 3.6
29/01:30pm 12.4 3.1 3.0 52 4.1 NW 41 69 22 37 986.8 - 3.6
29/01:00pm 11.2 3.3 4.2 62 3.2 NW 35 59 19 32 988.3 988.4 3.4
29/12:30pm 9.2 3.3 6.0 80 1.5 NW 26 46 14 25 989.7 - 3.4
29/12:00pm 9.8 4.0 6.2 78 1.7 NW 26 41 14 22 990.5 990.5 2.4
29/11:30am 10.3 4.2 6.5 77 1.8 NW 28 41 15 22 990.1 - 2.2
29/11:00am 11.8 4.7 5.4 65 3.0 NW 32 52 17 28 990.1 990.1 1.4
29/10:30am 12.6 7.7 6.8 68 2.8 NW 22 37 12 20 989.8 - 1.2
29/10:00am 11.7 5.8 7.6 76 2.0 NW 28 39 15 21 990.2 990.2 1.2
29/09:30am 12.0 7.0 8.0 76 2.0 WNW 24 37 13 20 990.2 - 0.6
29/09:00am 10.5 7.3 8.5 87 1.0 NW 15 24 8 13 990.3 990.3 4.4
29/08:30am 9.6 5.9 8.0 90 0.8 NW 17 26 9 14 990.2 - 4.2
29/08:00am 9.9 5.8 7.8 87 1.0 N 19 24 10 13 990.8 990.8 4.0
29/07:30am 10.1 6.3 7.6 84 1.2 NNW 17 24 9 13 991.4 - 3.4
29/07:00am 10.5 4.9 7.2 80 1.6 NW 26 43 14 23 992.3 992.3 2.2
29/06:30am 11.7 1.5 5.0 63 3.1 NNW 48 69 26 37 990.6 - 0.2
29/06:00am 12.2 2.0 3.3 54 4.0 NNW 46 67 25 36 990.7 990.7 0.0
29/05:30am 12.3 2.6 3.1 53 4.1 NNW 43 67 23 36 991.2 - 0.0
29/05:00am 12.1 3.6 3.1 54 4.0 NNW 37 59 20 32 991.8 991.8 0.0
29/04:30am 11.8 3.7 3.3 56 3.8 NNW 35 54 19 29 992.7 - 0.0
29/04:00am 12.2 3.3 3.3 54 4.0 NNW 39 54 21 29 993.4 993.5 0.0
29/03:30am 12.2 3.8 3.5 55 3.9 NNW 37 59 20 32 994.3 - 0.0
29/03:00am 12.1 6.5 3.7 56 3.8 NNW 22 35 12 19 994.6 994.7 0.0
29/02:30am 11.6 5.3 3.6 58 3.6 N 26 37 14 20 995.4 - 0.0
29/02:00am 11.6 6.0 3.6 58 3.6 NNW 22 35 12 19 996.0 996.1 0.0
29/01:30am 11.6 5.4 4.1 60 3.4 NNW 26 48 14 26 996.6 - 0.0
29/01:00am 11.8 4.8 4.1 59 3.5 NNW 30 48 16 26 996.7 996.8 0.0
29/12:30am 11.8 6.0 4.3 60 3.4 NW 24 35 13 19 997.8 - 0.0
29/12:00am 11.9 4.8 3.7 57 3.7 NW 30 48 16 26 998.3 998.4 0.0
 
Date/Time
EST
Tmp

°C
App
Tmp
°C
Dew
Point
°C
Rel
Hum
%
Delta-T

°C
Wind Press
QNH
hPa
Press
MSL
hPa
Rain
since
9 am
mm
Dir
 
Spd
km/h
Gust
km/h
Spd
kts
Gust
kts
28/11:30pm 11.8 5.5 3.5 57 3.7 NNW 26 41 14 22 998.3 - 0.0
28/11:00pm 11.4 5.1 3.8 59 3.4 NNW 26 43 14 23 998.6 998.7 0.0
28/10:30pm 11.8 4.8 4.1 59 3.5 NW 30 56 16 30 998.8 - 0.0
28/10:00pm 11.9 4.5 3.9 58 3.6 NW 32 48 17 26 999.4 999.5 0.0
28/09:30pm 11.8 5.6 4.1 59 3.5 NNW 26 44 14 24 999.6 - 0.0
28/09:00pm 11.7 3.8 4.2 60 3.4 NNW 35 48 19 26 999.8 999.9 0.0
28/08:30pm 11.7 5.5 4.5 61 3.3 NNW 26 44 14 24 1000.5 - 0.0
28/08:00pm 11.7 5.9 4.5 61 3.3 NNW 24 39 13 21 1001.0 1001.1 0.0
28/07:30pm 11.4 5.3 4.9 64 3.0 NW 26 39 14 21 1001.0 - 0.0
28/07:00pm 12.6 5.1 3.5 54 4.1 NW 32 54 17 29 1001.3 1001.4 0.0
28/06:30pm 13.1 5.3 2.8 49 4.6 NW 33 54 18 29 1000.8 - 0.0
28/06:00pm 13.3 6.6 1.5 44 5.1 NW 26 39 14 21 1000.5 1000.6 0.0
28/05:30pm 13.6 5.1 1.1 42 5.3 NW 35 57 19 31 1000.0 - 0.0
28/05:00pm 13.8 5.9 1.0 41 5.5 NNW 32 50 17 27 1000.5 1000.6 0.0
28/04:30pm 14.2 6.2 0.7 39 5.8 NW 32 48 17 26 1001.2 - 0.0
28/04:00pm 14.8 6.1 -0.4 35 6.4 NNW 35 52 19 28 1001.0 1001.1 0.0
28/03:30pm 15.2 6.9 -0.4 34 6.6 NW 33 50 18 27 1001.1 - 0.0
28/03:00pm 16.0 8.7 0.3 34 6.8 NW 28 44 15 24 1001.5 1001.6 0.0
28/02:30pm 15.6 7.1 0.6 36 6.5 NW 35 54 19 29 1001.7 - 0.0
28/02:00pm 15.8 7.2 0.3 35 6.7 NW 35 56 19 30 1001.9 1002.0 0.0
28/01:30pm 15.7 6.7 0.4 35 6.6 NW 37 61 20 33 1002.3 - 0.0

Latest Capital City Observations: Canberra | Sydney | Melbourne | Brisbane | Adelaide | Perth | Hobart | Darwin

Other Formats:

Comma delimited format used in spreadsheet applications
http://www.bom.gov.au/fwo/IDT60901/IDT60901.94970.axf

JavaScript Object Notation format (JSON) in row-major order
http://www.bom.gov.au/fwo/IDT60901/IDT60901.94970.json